Time;durP1;ratioP1;P1;durP2;ratioP2;P2;SDS_P1;SDS_P2;PMS_P1;PMS_P2;Temp;Humidity;BMP_temperature;BMP_pressure;BME280_temperature;BME280_humidity;BME280_pressure;Samples;Min_cycle;Max_cycle;Signal;HPM_P1;HPM_P2
2022/12/07 00:01:05;;;;;;;5.40;4.55;;;;;;;;;;5058280;28;20690;-88
2022/12/07 00:03:32;;;;;;;3.60;3.30;;;;;;;;;;5057874;28;20181;-89
2022/12/07 00:06:00;;;;;;;4.05;3.65;;;;;;;;;;5057322;28;20198;-88
2022/12/07 00:08:27;;;;;;;3.45;3.15;;;;;;;;;;5056846;28;20257;-89
2022/12/07 00:10:55;;;;;;;3.65;3.00;;;;;;;;;;5057054;28;20268;-88
2022/12/07 00:13:23;;;;;;;3.58;3.28;;;;;;;;;;5056865;28;20255;-89
2022/12/07 00:15:52;;;;;;;3.10;2.90;;;;;;;;;;5055997;28;20201;-88
2022/12/07 00:18:20;;;;;;;3.45;3.15;;;;;;;;;;5055948;28;20292;-88
2022/12/07 00:20:47;;;;;;;3.05;2.75;;;;;;;;;;5056965;28;20643;-88
2022/12/07 00:23:15;;;;;;;3.72;3.42;;;;;;;;;;5057213;28;20904;-89
2022/12/07 00:25:42;;;;;;;3.70;3.40;;;;;;;;;;5044832;28;20278;-88
2022/12/07 00:28:10;;;;;;;4.20;3.80;;;;;;;;;;5037536;28;20206;-88
2022/12/07 00:30:38;;;;;;;3.28;2.97;;;;;;;;;;5037015;28;20230;-88
2022/12/07 00:33:07;;;;;;;4.28;3.88;;;;;;;;;;5036979;28;20202;-88
2022/12/07 00:35:34;;;;;;;4.60;4.20;;;;;;;;;;5037140;28;20286;-88
2022/12/07 00:38:02;;;;;;;4.50;4.03;;;;;;;;;;5036351;28;20260;-88
2022/12/07 00:40:29;;;;;;;3.60;3.28;;;;;;;;;;5075384;28;20313;-88
2022/12/07 00:42:57;;;;;;;3.55;3.25;;;;;;;;;;5077247;28;20287;-88
2022/12/07 00:45:24;;;;;;;3.30;3.00;;;;;;;;;;5076976;28;20224;-88
2022/12/07 00:47:52;;;;;;;3.60;3.30;;;;;;;;;;5076696;28;20232;-88
2022/12/07 00:50:23;;;;;;;3.00;2.80;;;;;;;;;;5076677;28;20279;-88
2022/12/07 00:52:52;;;;;;;2.75;2.55;;;;;;;;;;5076462;28;20658;-88
2022/12/07 00:55:19;;;;;;;4.38;2.65;;;;;;;;;;5075773;28;20545;-87
2022/12/07 00:57:47;;;;;;;3.90;3.60;;;;;;;;;;5076643;28;20291;-89
2022/12/07 01:00:15;;;;;;;4.65;4.25;;;;;;;;;;5077244;28;20319;-88
2022/12/07 01:02:43;;;;;;;4.72;4.32;;;;;;;;;;5077219;28;20188;-88
2022/12/07 01:05:10;;;;;;;5.13;4.72;;;;;;;;;;5076307;28;20795;-88
2022/12/07 01:07:39;;;;;;;5.40;4.90;;;;;;;;;;5077266;28;20212;-89
2022/12/07 01:10:09;;;;;;;5.53;5.03;;;;;;;;;;5060519;28;20301;-88
2022/12/07 01:12:36;;;;;;;5.30;4.80;;;;;;;;;;5055484;28;20721;-88
2022/12/07 01:15:04;;;;;;;4.07;3.35;;;;;;;;;;5056139;28;20241;-89
2022/12/07 01:17:32;;;;;;;4.68;4.15;;;;;;;;;;5057258;28;20198;-86
2022/12/07 01:19:59;;;;;;;3.25;2.95;;;;;;;;;;5063180;28;20272;-87
2022/12/07 01:22:27;;;;;;;3.83;3.50;;;;;;;;;;5064830;28;20201;-87
2022/12/07 01:24:56;;;;;;;3.33;3.03;;;;;;;;;;5064051;28;20267;-86
2022/12/07 01:27:24;;;;;;;3.00;2.80;;;;;;;;;;5064914;28;20281;-87
2022/12/07 01:29:52;;;;;;;2.92;2.72;;;;;;;;;;5064158;28;20217;-85
2022/12/07 01:32:20;;;;;;;3.70;3.20;;;;;;;;;;5064495;28;20696;-86
2022/12/07 01:34:49;;;;;;;3.83;3.53;;;;;;;;;;5063782;28;20202;-87
2022/12/07 01:37:17;;;;;;;3.78;3.45;;;;;;;;;;5063966;28;20297;-87
2022/12/07 01:39:44;;;;;;;4.05;3.55;;;;;;;;;;5063403;28;20232;-87
2022/12/07 01:42:13;;;;;;;4.38;3.92;;;;;;;;;;5063621;28;20718;-86
2022/12/07 01:45:34;;;;;;;3.53;3.22;;;;;;;;;;5064091;28;20284;-86
2022/12/07 01:48:02;;;;;;;3.72;3.42;;;;;;;;;;5041764;28;20292;-87
2022/12/07 01:50:31;;;;;;;3.50;3.20;;;;;;;;;;5064056;28;20273;-86
2022/12/07 01:53:00;;;;;;;2.60;2.40;;;;;;;;;;5064657;28;20836;-87
2022/12/07 01:55:28;;;;;;;4.72;4.15;;;;;;;;;;5064262;28;20604;-87
2022/12/07 01:57:57;;;;;;;3.85;3.55;;;;;;;;;;5063670;28;20419;-87
2022/12/07 02:00:25;;;;;;;3.20;2.90;;;;;;;;;;5063505;28;20248;-88
2022/12/07 02:02:57;;;;;;;3.67;3.38;;;;;;;;;;5062945;28;20201;-87
2022/12/07 02:05:25;;;;;;;3.40;2.58;;;;;;;;;;5063285;28;20186;-87
2022/12/07 02:07:56;;;;;;;4.75;4.35;;;;;;;;;;5062863;28;20288;-87
2022/12/07 02:10:31;;;;;;;3.70;2.72;;;;;;;;;;5081077;28;20232;-87
2022/12/07 02:13:03;;;;;;;4.10;3.80;;;;;;;;;;5083143;28;20313;-87
2022/12/07 02:15:43;;;;;;;2.55;2.35;;;;;;;;;;5082924;28;20269;-87
2022/12/07 02:18:17;;;;;;;3.40;3.10;;;;;;;;;;5082375;28;20269;-85
2022/12/07 02:20:53;;;;;;;3.45;3.15;;;;;;;;;;5082686;28;20278;-87
2022/12/07 02:24:03;;;;;;;3.70;3.40;;;;;;;;;;5082801;28;20186;-86
2022/12/07 02:27:17;;;;;;;3.38;3.10;;;;;;;;;;5082794;28;20260;-85
2022/12/07 02:29:50;;;;;;;4.10;3.70;;;;;;;;;;5080457;28;20217;-84
2022/12/07 02:32:23;;;;;;;4.10;3.67;;;;;;;;;;5081324;28;20243;-85
2022/12/07 02:34:53;;;;;;;3.50;3.20;;;;;;;;;;5081743;28;20670;-83
2022/12/07 02:37:30;;;;;;;4.57;4.18;;;;;;;;;;5081810;28;20287;-84
2022/12/07 02:40:02;;;;;;;4.70;4.30;;;;;;;;;;5081120;28;20307;-85
2022/12/07 02:42:33;;;;;;;6.03;5.43;;;;;;;;;;5081472;28;20185;-85
2022/12/07 02:45:03;;;;;;;5.85;5.30;;;;;;;;;;5080398;28;20622;-83
2022/12/07 02:47:31;;;;;;;5.20;4.70;;;;;;;;;;5080690;28;20208;-85
2022/12/07 02:49:59;;;;;;;5.60;5.10;;;;;;;;;;5079736;28;20305;-86
2022/12/07 02:52:26;;;;;;;7.35;6.65;;;;;;;;;;5079672;28;20256;-86
2022/12/07 02:54:54;;;;;;;6.63;5.75;;;;;;;;;;5079476;28;20678;-84
2022/12/07 02:57:42;;;;;;;6.80;6.20;;;;;;;;;;5079598;28;20298;-84
2022/12/07 03:00:15;;;;;;;6.97;6.38;;;;;;;;;;5079071;28;20300;-85
2022/12/07 03:02:54;;;;;;;5.75;5.13;;;;;;;;;;5079858;28;20549;-84
2022/12/07 03:05:58;;;;;;;6.82;6.13;;;;;;;;;;5079426;28;20562;-85
2022/12/07 03:08:32;;;;;;;5.28;4.78;;;;;;;;;;5078802;28;20262;-85
2022/12/07 03:11:03;;;;;;;7.53;5.30;;;;;;;;;;5061413;28;20690;-85
2022/12/07 03:13:35;;;;;;;6.93;6.22;;;;;;;;;;5060277;28;20297;-85
2022/12/07 03:16:10;;;;;;;4.65;4.25;;;;;;;;;;5059490;28;20212;-84
2022/12/07 03:18:44;;;;;;;6.03;5.40;;;;;;;;;;5059337;28;20205;-84
2022/12/07 03:21:18;;;;;;;5.95;5.18;;;;;;;;;;5060721;28;20275;-87
2022/12/07 03:23:50;;;;;;;6.25;5.65;;;;;;;;;;5060550;28;20627;-86
2022/12/07 03:26:19;;;;;;;7.00;6.28;;;;;;;;;;5060051;28;20205;-86
2022/12/07 03:28:50;;;;;;;4.45;4.00;;;;;;;;;;5059133;28;20209;-86
2022/12/07 03:31:22;;;;;;;4.55;4.07;;;;;;;;;;5056549;28;20197;-85
2022/12/07 03:33:54;;;;;;;5.38;4.82;;;;;;;;;;5056045;28;20296;-84
2022/12/07 03:36:25;;;;;;;5.28;4.78;;;;;;;;;;5056098;28;20186;-85
2022/12/07 03:38:58;;;;;;;4.70;4.30;;;;;;;;;;5055180;28;20244;-85
2022/12/07 03:41:29;;;;;;;4.07;3.67;;;;;;;;;;5055169;28;20293;-87
2022/12/07 03:43:57;;;;;;;5.07;4.60;;;;;;;;;;5055679;28;20224;-85
2022/12/07 03:46:35;;;;;;;4.00;3.67;;;;;;;;;;5055691;28;20285;-85
2022/12/07 03:49:11;;;;;;;4.88;4.25;;;;;;;;;;5055448;28;20279;-85
2022/12/07 03:51:44;;;;;;;5.88;3.70;;;;;;;;;;5055270;28;20288;-85
2022/12/07 03:54:18;;;;;;;5.55;5.05;;;;;;;;;;5055056;28;20206;-85
2022/12/07 03:56:46;;;;;;;5.53;5.03;;;;;;;;;;5055565;28;20210;-85
2022/12/07 03:59:15;;;;;;;6.35;5.65;;;;;;;;;;5054990;28;20260;-85
2022/12/07 04:01:45;;;;;;;6.63;6.00;;;;;;;;;;5055242;28;20324;-85
2022/12/07 04:04:12;;;;;;;8.00;7.05;;;;;;;;;;5054965;28;20284;-85
2022/12/07 04:06:40;;;;;;;7.38;6.35;;;;;;;;;;5055401;28;20360;-85
2022/12/07 04:09:07;;;;;;;7.03;6.13;;;;;;;;;;5054944;28;20675;-85
2022/12/07 04:11:35;;;;;;;6.47;5.88;;;;;;;;;;5054930;28;20197;-85
2022/12/07 04:14:21;;;;;;;7.88;6.78;;;;;;;;;;5054584;28;20308;-86
2022/12/07 04:16:51;;;;;;;11.65;8.35;;;;;;;;;;5055036;28;20246;-86
2022/12/07 04:19:21;;;;;;;5.28;4.72;;;;;;;;;;5055111;28;20337;-86
2022/12/07 04:21:49;;;;;;;5.43;4.95;;;;;;;;;;5055363;28;20277;-85
2022/12/07 04:24:17;;;;;;;6.32;5.43;;;;;;;;;;5054643;28;20274;-85
2022/12/07 04:26:47;;;;;;;8.32;7.10;;;;;;;;;;5054706;28;20240;-85
2022/12/07 04:29:15;;;;;;;6.28;5.75;;;;;;;;;;5053955;28;20289;-87
2022/12/07 04:31:43;;;;;;;7.53;6.75;;;;;;;;;;5054765;28;20293;-86
2022/12/07 04:34:13;;;;;;;6.45;5.78;;;;;;;;;;5054607;28;20657;-87
2022/12/07 04:36:41;;;;;;;8.18;6.85;;;;;;;;;;5054927;28;20249;-87
2022/12/07 04:39:18;;;;;;;7.05;6.30;;;;;;;;;;5054416;28;20643;-87
2022/12/07 04:41:45;;;;;;;7.80;7.05;;;;;;;;;;5054749;28;20292;-86
2022/12/07 04:44:17;;;;;;;7.55;6.30;;;;;;;;;;5054887;28;20265;-85
2022/12/07 04:46:45;;;;;;;6.78;6.07;;;;;;;;;;5054642;28;20197;-87
2022/12/07 04:49:15;;;;;;;8.48;6.68;;;;;;;;;;5053918;28;20311;-86
2022/12/07 04:51:43;;;;;;;7.35;6.65;;;;;;;;;;5054904;28;20198;-85
2022/12/07 04:54:10;;;;;;;6.47;5.50;;;;;;;;;;5056628;28;20279;-86
2022/12/07 04:56:38;;;;;;;6.28;5.68;;;;;;;;;;5059737;28;20267;-87
2022/12/07 04:59:06;;;;;;;7.60;6.63;;;;;;;;;;5058914;28;20710;-86
2022/12/07 05:01:34;;;;;;;8.80;6.88;;;;;;;;;;5059209;28;20638;-85
2022/12/07 05:04:02;;;;;;;12.55;6.25;;;;;;;;;;5058528;28;20292;-85
2022/12/07 05:06:31;;;;;;;7.80;5.80;;;;;;;;;;5059026;28;20201;-86
2022/12/07 05:08:58;;;;;;;8.65;6.88;;;;;;;;;;5058309;28;20294;-85
2022/12/07 05:11:41;;;;;;;8.75;6.07;;;;;;;;;;5058918;28;20284;-85
2022/12/07 05:14:13;;;;;;;8.27;6.35;;;;;;;;;;5058833;28;20316;-85
2022/12/07 05:16:41;;;;;;;6.25;4.78;;;;;;;;;;5058659;28;20271;-85
2022/12/07 05:19:09;;;;;;;8.38;5.97;;;;;;;;;;5057974;28;20219;-85
2022/12/07 05:21:39;;;;;;;6.68;5.97;;;;;;;;;;5058941;28;20642;-85
2022/12/07 05:24:07;;;;;;;8.32;5.75;;;;;;;;;;5058894;28;20235;-85
2022/12/07 05:26:35;;;;;;;17.00;6.20;;;;;;;;;;5058353;28;20694;-85
2022/12/07 05:29:03;;;;;;;13.60;5.70;;;;;;;;;;5057924;28;20258;-85
2022/12/07 05:31:30;;;;;;;4.18;3.88;;;;;;;;;;5059563;28;20233;-86
2022/12/07 05:33:58;;;;;;;5.43;4.90;;;;;;;;;;5058765;28;20328;-86
2022/12/07 05:36:28;;;;;;;6.40;5.63;;;;;;;;;;5058551;28;20221;-85
2022/12/07 05:38:57;;;;;;;8.07;6.15;;;;;;;;;;5058660;28;20237;-86
2022/12/07 05:44:09;;;;;;;8.38;5.78;;;;;;;;;;5058091;28;20185;-85
2022/12/07 05:46:37;;;;;;;8.00;5.82;;;;;;;;;;5058272;28;20343;-85
2022/12/07 05:49:05;;;;;;;8.93;6.20;;;;;;;;;;5058370;28;20205;-84
2022/12/07 05:51:32;;;;;;;6.10;5.47;;;;;;;;;;5058114;28;20262;-86
2022/12/07 05:54:01;;;;;;;8.25;5.53;;;;;;;;;;5057789;28;20280;-85
2022/12/07 05:56:28;;;;;;;8.27;5.50;;;;;;;;;;5058129;28;20727;-86
2022/12/07 06:01:43;;;;;;;5.20;4.75;;;;;;;;;;5057685;28;20200;-86
2022/12/07 06:04:10;;;;;;;5.82;4.88;;;;;;;;;;5057604;28;20284;-86
2022/12/07 06:06:38;;;;;;;5.40;4.90;;;;;;;;;;5058022;28;20284;-86
2022/12/07 06:09:07;;;;;;;7.70;5.20;;;;;;;;;;5057014;28;20248;-87
2022/12/07 06:14:20;;;;;;;4.80;4.40;;;;;;;;;;5057913;28;20285;-87
2022/12/07 06:16:47;;;;;;;5.10;4.70;;;;;;;;;;5057548;28;20204;-87
2022/12/07 06:19:15;;;;;;;7.43;4.85;;;;;;;;;;5057311;28;20260;-85
2022/12/07 06:21:43;;;;;;;6.55;5.70;;;;;;;;;;5057107;28;20610;-86
2022/12/07 06:24:14;;;;;;;9.00;4.80;;;;;;;;;;5057391;28;20205;-86
2022/12/07 06:26:41;;;;;;;5.32;4.60;;;;;;;;;;5057244;28;20304;-86
2022/12/07 06:29:09;;;;;;;4.75;4.18;;;;;;;;;;5056534;28;20654;-86
2022/12/07 06:31:37;;;;;;;5.80;4.30;;;;;;;;;;5057082;28;20217;-85
2022/12/07 06:34:07;;;;;;;5.22;4.10;;;;;;;;;;5056727;28;20571;-87
2022/12/07 06:36:35;;;;;;;5.22;3.50;;;;;;;;;;5058542;28;20186;-85
2022/12/07 06:39:04;;;;;;;5.50;5.00;;;;;;;;;;5056949;28;20631;-85
2022/12/07 06:41:33;;;;;;;5.95;4.72;;;;;;;;;;5056825;28;20289;-86
2022/12/07 06:44:00;;;;;;;6.57;4.95;;;;;;;;;;5057454;28;20296;-85
2022/12/07 06:46:28;;;;;;;3.30;3.00;;;;;;;;;;5057435;28;20237;-86
2022/12/07 06:48:55;;;;;;;3.75;3.03;;;;;;;;;;5057003;28;20284;-86
2022/12/07 06:51:23;;;;;;;3.92;3.58;;;;;;;;;;5054821;28;20239;-85
2022/12/07 06:53:50;;;;;;;4.50;3.85;;;;;;;;;;5055436;28;20728;-86
2022/12/07 06:56:18;;;;;;;4.90;3.72;;;;;;;;;;5056681;28;20310;-86
2022/12/07 06:58:47;;;;;;;5.10;4.60;;;;;;;;;;5056515;28;20262;-85
2022/12/07 07:01:16;;;;;;;4.28;3.85;;;;;;;;;;5056776;28;20217;-87
2022/12/07 07:03:44;;;;;;;3.67;3.38;;;;;;;;;;5056330;28;20277;-86
2022/12/07 07:06:13;;;;;;;6.28;4.20;;;;;;;;;;5049674;28;20204;-86
2022/12/07 07:08:41;;;;;;;4.13;3.72;;;;;;;;;;5056937;28;20289;-86
2022/12/07 07:11:09;;;;;;;5.38;4.57;;;;;;;;;;5056849;28;20248;-86
2022/12/07 07:13:37;;;;;;;3.47;3.17;;;;;;;;;;5056543;28;20292;-87
2022/12/07 07:16:07;;;;;;;6.75;4.47;;;;;;;;;;5055953;28;20644;-86
2022/12/07 07:18:35;;;;;;;9.05;4.22;;;;;;;;;;5056608;28;20243;-87
2022/12/07 07:21:03;;;;;;;5.45;4.20;;;;;;;;;;5056243;28;20246;-87
2022/12/07 07:23:30;;;;;;;7.88;4.53;;;;;;;;;;5056110;28;20226;-86
2022/12/07 07:25:58;;;;;;;5.75;4.43;;;;;;;;;;5057290;28;20256;-87
2022/12/07 07:28:26;;;;;;;6.45;4.47;;;;;;;;;;5055919;28;20288;-87
2022/12/07 07:30:53;;;;;;;5.10;4.57;;;;;;;;;;5056134;28;20248;-87
2022/12/07 07:33:22;;;;;;;3.45;3.15;;;;;;;;;;5056586;28;20293;-87
2022/12/07 07:35:50;;;;;;;3.40;3.10;;;;;;;;;;5057040;28;20295;-86
2022/12/07 07:38:17;;;;;;;4.07;3.22;;;;;;;;;;5056751;28;20240;-87
2022/12/07 07:40:45;;;;;;;3.45;3.03;;;;;;;;;;5075904;28;20419;-87
2022/12/07 07:43:12;;;;;;;5.72;4.90;;;;;;;;;;5075749;28;20246;-87
2022/12/07 07:45:40;;;;;;;4.50;3.65;;;;;;;;;;5076041;28;20224;-86
2022/12/07 07:48:08;;;;;;;5.22;3.83;;;;;;;;;;5076670;28;20205;-87
2022/12/07 07:50:36;;;;;;;7.72;4.95;;;;;;;;;;5076019;28;20254;-86
2022/12/07 07:53:04;;;;;;;3.80;3.33;;;;;;;;;;5065162;28;20310;-86
2022/12/07 07:55:31;;;;;;;5.30;3.72;;;;;;;;;;5056307;28;20231;-86
2022/12/07 07:57:59;;;;;;;8.15;4.63;;;;;;;;;;5054974;28;20720;-87
2022/12/07 08:00:26;;;;;;;5.47;3.95;;;;;;;;;;5055059;28;20229;-87
2022/12/07 08:02:54;;;;;;;6.65;4.13;;;;;;;;;;5055797;28;20240;-87
2022/12/07 08:05:21;;;;;;;4.30;3.90;;;;;;;;;;5056143;28;20194;-86
2022/12/07 08:07:50;;;;;;;4.72;3.65;;;;;;;;;;5055535;28;20678;-84
2022/12/07 08:10:18;;;;;;;3.50;3.20;;;;;;;;;;5073561;28;20768;-85
2022/12/07 08:15:32;;;;;;;3.85;3.08;;;;;;;;;;5076163;28;20239;-85
2022/12/07 08:17:59;;;;;;;3.72;3.30;;;;;;;;;;5075253;28;20692;-85
2022/12/07 08:20:27;;;;;;;3.80;3.00;;;;;;;;;;5076372;28;20267;-85
2022/12/07 08:22:56;;;;;;;3.25;2.95;;;;;;;;;;5067224;28;20293;-85
2022/12/07 08:25:23;;;;;;;3.25;2.88;;;;;;;;;;5055868;28;20293;-85
2022/12/07 08:27:52;;;;;;;2.70;2.50;;;;;;;;;;5055274;28;20682;-85
2022/12/07 08:30:20;;;;;;;2.42;2.22;;;;;;;;;;5055924;28;20218;-85
2022/12/07 08:32:48;;;;;;;4.80;3.72;;;;;;;;;;5055723;28;20233;-86
2022/12/07 08:35:17;;;;;;;4.20;3.22;;;;;;;;;;5055630;28;20316;-85
2022/12/07 08:37:44;;;;;;;3.95;3.55;;;;;;;;;;5055233;28;20237;-85
2022/12/07 08:40:15;;;;;;;2.85;2.65;;;;;;;;;;5055889;28;20415;-85
2022/12/07 08:42:44;;;;;;;3.78;2.92;;;;;;;;;;5056069;28;20190;-86
2022/12/07 08:45:14;;;;;;;3.95;3.13;;;;;;;;;;5055608;28;20662;-85
2022/12/07 08:47:46;;;;;;;5.70;3.10;;;;;;;;;;5056397;28;20182;-85
2022/12/07 08:50:14;;;;;;;3.58;3.28;;;;;;;;;;5055873;28;20326;-86
2022/12/07 08:52:42;;;;;;;6.28;3.95;;;;;;;;;;5056649;28;20772;-87
2022/12/07 08:55:13;;;;;;;5.72;3.92;;;;;;;;;;5056059;28;20806;-86
2022/12/07 08:57:42;;;;;;;3.90;3.50;;;;;;;;;;5055455;28;20202;-85
2022/12/07 09:00:11;;;;;;;4.55;4.15;;;;;;;;;;5055784;28;20225;-86
2022/12/07 09:02:39;;;;;;;4.00;3.58;;;;;;;;;;5056858;28;20213;-86
2022/12/07 09:05:07;;;;;;;9.35;3.55;;;;;;;;;;5056204;28;20296;-87
2022/12/07 09:07:36;;;;;;;5.60;2.97;;;;;;;;;;5056759;28;20285;-87
2022/12/07 09:10:04;;;;;;;3.67;3.03;;;;;;;;;;5056299;28;20264;-86
2022/12/07 09:12:32;;;;;;;3.78;3.33;;;;;;;;;;5057078;28;20202;-87
2022/12/07 09:15:01;;;;;;;3.58;3.17;;;;;;;;;;5055623;28;20290;-86
2022/12/07 09:17:28;;;;;;;4.57;3.45;;;;;;;;;;5056154;28;20225;-85
2022/12/07 09:19:56;;;;;;;4.93;3.45;;;;;;;;;;5055407;28;20335;-84
2022/12/07 09:22:23;;;;;;;6.68;4.20;;;;;;;;;;5054621;28;20239;-84
2022/12/07 09:24:51;;;;;;;3.85;3.20;;;;;;;;;;5054713;28;20233;-84
2022/12/07 09:27:18;;;;;;;7.90;3.58;;;;;;;;;;5055276;28;20284;-84
2022/12/07 09:29:47;;;;;;;4.13;2.63;;;;;;;;;;5060190;28;20280;-84
2022/12/07 09:32:18;;;;;;;2.67;2.47;;;;;;;;;;5061912;28;20312;-83
2022/12/07 09:34:45;;;;;;;2.30;2.10;;;;;;;;;;5060534;28;20269;-84
2022/12/07 09:37:13;;;;;;;4.90;2.83;;;;;;;;;;5060911;28;20289;-84
2022/12/07 09:39:41;;;;;;;3.65;2.80;;;;;;;;;;5074204;28;20228;-83
2022/12/07 09:42:10;;;;;;;3.35;2.17;;;;;;;;;;5084138;28;20205;-84
2022/12/07 09:44:40;;;;;;;4.00;2.33;;;;;;;;;;5084288;28;20205;-85
2022/12/07 09:47:11;;;;;;;4.70;2.70;;;;;;;;;;5082721;28;20657;-84
2022/12/07 09:49:38;;;;;;;3.60;2.40;;;;;;;;;;5083765;28;20249;-84
2022/12/07 09:52:20;;;;;;;2.45;2.25;;;;;;;;;;5080963;28;20241;-84
2022/12/07 09:54:50;;;;;;;2.38;2.03;;;;;;;;;;5063350;28;20221;-84
2022/12/07 09:57:18;;;;;;;4.60;3.10;;;;;;;;;;5062682;28;20308;-85
2022/12/07 09:59:46;;;;;;;2.50;2.05;;;;;;;;;;5063496;28;20253;-84
2022/12/07 10:02:32;;;;;;;4.95;2.70;;;;;;;;;;5063422;28;20205;-83
2022/12/07 10:05:00;;;;;;;4.50;2.53;;;;;;;;;;5062831;28;20217;-82
2022/12/07 10:07:27;;;;;;;3.03;2.30;;;;;;;;;;5063312;28;20240;-83
2022/12/07 10:09:55;;;;;;;4.05;2.15;;;;;;;;;;5078172;28;20284;-84
2022/12/07 10:12:22;;;;;;;3.67;2.38;;;;;;;;;;5082741;28;20231;-83
2022/12/07 10:14:58;;;;;;;4.80;2.40;;;;;;;;;;5082291;28;20255;-83
2022/12/07 10:17:40;;;;;;;1.90;1.77;;;;;;;;;;5083157;28;20263;-84
2022/12/07 10:20:24;;;;;;;2.42;2.22;;;;;;;;;;5081155;28;20229;-83
2022/12/07 10:23:04;;;;;;;2.30;2.03;;;;;;;;;;5073021;28;20239;-82
2022/12/07 10:25:34;;;;;;;2.30;1.65;;;;;;;;;;5062562;28;20209;-84
2022/12/07 10:28:10;;;;;;;4.55;2.35;;;;;;;;;;5061610;28;20629;-84
2022/12/07 10:30:56;;;;;;;1.90;1.80;;;;;;;;;;5062943;28;20308;-84
2022/12/07 10:33:34;;;;;;;8.68;2.50;;;;;;;;;;5061899;28;20205;-85
2022/12/07 10:36:17;;;;;;;3.70;1.80;;;;;;;;;;5061592;28;20253;-84
2022/12/07 10:38:48;;;;;;;2.97;1.73;;;;;;;;;;5067168;28;20200;-85
2022/12/07 10:41:16;;;;;;;2.03;1.80;;;;;;;;;;5082061;28;20927;-85
2022/12/07 10:43:55;;;;;;;2.50;1.85;;;;;;;;;;5081248;28;20658;-84
2022/12/07 10:46:57;;;;;;;2.58;1.88;;;;;;;;;;5082211;28;20598;-84
2022/12/07 10:50:08;;;;;;;1.90;1.55;;;;;;;;;;5078558;28;20256;-82
2022/12/07 10:52:54;;;;;;;4.10;2.30;;;;;;;;;;5073564;28;20662;-84
2022/12/07 10:55:26;;;;;;;3.42;2.25;;;;;;;;;;5061855;28;20707;-84
2022/12/07 10:58:12;;;;;;;2.40;2.00;;;;;;;;;;5061104;28;20225;-84
2022/12/07 11:00:47;;;;;;;1.50;1.40;;;;;;;;;;5042856;28;20739;-83
2022/12/07 11:03:31;;;;;;;2.03;1.40;;;;;;;;;;5042992;28;20833;-85
2022/12/07 11:06:11;;;;;;;3.17;2.00;;;;;;;;;;5042616;28;20202;-84
2022/12/07 11:08:56;;;;;;;2.35;1.80;;;;;;;;;;5045432;28;20593;-83
2022/12/07 11:11:31;;;;;;;5.25;2.10;;;;;;;;;;5062131;28;20186;-83
2022/12/07 11:14:12;;;;;;;2.72;1.85;;;;;;;;;;5061658;28;20202;-84
2022/12/07 11:16:53;;;;;;;4.45;2.08;;;;;;;;;;5061829;28;20186;-82
2022/12/07 11:19:51;;;;;;;2.95;1.88;;;;;;;;;;5061981;28;20317;-83
2022/12/07 11:22:24;;;;;;;1.73;1.63;;;;;;;;;;5061831;28;20209;-83
2022/12/07 11:24:58;;;;;;;4.95;3.90;;;;;;;;;;5061409;28;20209;-84
2022/12/07 11:27:35;;;;;;;4.30;3.72;;;;;;;;;;5062349;28;20177;-85
2022/12/07 11:30:21;;;;;;;3.47;2.60;;;;;;;;;;5061298;28;20259;-84
2022/12/07 11:33:13;;;;;;;3.08;1.60;;;;;;;;;;5059898;28;20212;-84
2022/12/07 11:35:52;;;;;;;2.97;2.00;;;;;;;;;;5058861;28;20217;-84
2022/12/07 11:38:25;;;;;;;4.15;2.15;;;;;;;;;;5060606;28;20209;-83
2022/12/07 11:40:56;;;;;;;3.65;1.60;;;;;;;;;;5079860;28;20221;-84
2022/12/07 11:43:28;;;;;;;1.90;1.80;;;;;;;;;;5079419;28;20200;-84
2022/12/07 11:46:02;;;;;;;3.92;2.13;;;;;;;;;;5079222;28;20242;-85
2022/12/07 11:48:35;;;;;;;2.67;2.20;;;;;;;;;;5079817;28;20189;-83
2022/12/07 11:51:04;;;;;;;3.78;2.75;;;;;;;;;;5079087;28;20229;-83
2022/12/07 11:53:37;;;;;;;3.78;1.90;;;;;;;;;;5079437;28;20201;-85
2022/12/07 11:56:10;;;;;;;2.25;1.80;;;;;;;;;;5079337;28;20276;-84
2022/12/07 11:58:47;;;;;;;1.95;1.85;;;;;;;;;;5078836;28;20197;-85
2022/12/07 12:01:49;;;;;;;1.35;1.30;;;;;;;;;;5079044;28;20213;-83
2022/12/07 12:04:30;;;;;;;4.50;2.25;;;;;;;;;;5078836;28;20224;-83
2022/12/07 12:06:57;;;;;;;5.03;1.80;;;;;;;;;;5079651;28;20186;-83
2022/12/07 12:09:31;;;;;;;2.45;1.88;;;;;;;;;;5069386;28;20249;-84
2022/12/07 12:12:26;;;;;;;4.38;1.90;;;;;;;;;;5059900;28;20220;-84
2022/12/07 12:15:07;;;;;;;5.68;2.15;;;;;;;;;;5060188;28;20217;-85
2022/12/07 12:18:23;;;;;;;2.30;1.88;;;;;;;;;;5059734;28;20280;-84
2022/12/07 12:20:54;;;;;;;3.40;1.85;;;;;;;;;;5044552;28;20265;-85
2022/12/07 12:23:24;;;;;;;2.10;1.50;;;;;;;;;;5060109;28;20627;-85
2022/12/07 12:25:55;;;;;;;3.13;1.92;;;;;;;;;;5059826;28;20651;-82
2022/12/07 12:28:30;;;;;;;2.05;1.80;;;;;;;;;;5059370;28;20237;-85
2022/12/07 12:31:11;;;;;;;2.78;1.63;;;;;;;;;;5059533;28;20657;-81
2022/12/07 12:33:43;;;;;;;4.55;1.80;;;;;;;;;;5058754;28;20185;-84
2022/12/07 12:36:27;;;;;;;5.40;2.70;;;;;;;;;;5059432;28;20197;-85
2022/12/07 12:39:13;;;;;;;3.10;2.10;;;;;;;;;;5058188;28;20228;-84
2022/12/07 12:42:06;;;;;;;3.35;1.45;;;;;;;;;;5058918;28;20268;-85
2022/12/07 12:45:20;;;;;;;3.65;1.90;;;;;;;;;;5059086;28;20228;-85
2022/12/07 12:47:59;;;;;;;2.38;1.42;;;;;;;;;;5057651;28;20185;-85
2022/12/07 12:50:32;;;;;;;2.03;1.83;;;;;;;;;;5057916;28;20229;-85
2022/12/07 12:53:17;;;;;;;1.85;1.70;;;;;;;;;;5058385;28;20299;-84
2022/12/07 12:56:24;;;;;;;3.92;1.27;;;;;;;;;;5057950;28;20197;-84
2022/12/07 12:59:34;;;;;;;2.45;1.50;;;;;;;;;;5056711;28;20244;-83
2022/12/07 13:02:18;;;;;;;2.75;1.65;;;;;;;;;;5054742;28;20237;-84
2022/12/07 13:04:55;;;;;;;3.88;1.90;;;;;;;;;;5057968;28;20722;-84
2022/12/07 13:07:58;;;;;;;2.45;1.85;;;;;;;;;;5057502;28;20213;-82
2022/12/07 13:10:41;;;;;;;2.33;1.92;;;;;;;;;;5057185;28;20736;-84
2022/12/07 13:13:33;;;;;;;3.30;1.42;;;;;;;;;;5063111;28;20231;-87
2022/12/07 13:16:50;;;;;;;2.60;2.08;;;;;;;;;;5065999;28;20274;-87
2022/12/07 13:20:01;;;;;;;3.50;1.95;;;;;;;;;;5034978;28;20289;-88
2022/12/07 13:22:48;;;;;;;1.48;1.38;;;;;;;;;;5058449;28;20651;-87
2022/12/07 13:25:30;;;;;;;4.30;2.30;;;;;;;;;;5068925;28;20182;-87
2022/12/07 13:28:03;;;;;;;1.42;1.30;;;;;;;;;;5067974;28;20200;-88
2022/12/07 13:30:31;;;;;;;2.80;1.95;;;;;;;;;;5068400;28;20260;-87
2022/12/07 13:33:01;;;;;;;1.80;1.70;;;;;;;;;;5067787;28;20202;-86
2022/12/07 13:35:35;;;;;;;3.08;2.00;;;;;;;;;;5068319;28;20197;-86
2022/12/07 13:38:16;;;;;;;3.15;1.40;;;;;;;;;;5067316;28;20204;-87
2022/12/07 13:40:44;;;;;;;3.72;1.92;;;;;;;;;;5048472;28;20218;-87
2022/12/07 13:43:16;;;;;;;2.58;1.73;;;;;;;;;;5049165;28;20288;-87
2022/12/07 13:45:50;;;;;;;2.60;1.77;;;;;;;;;;5050092;28;20194;-86
2022/12/07 13:48:25;;;;;;;2.75;1.75;;;;;;;;;;5048733;28;20697;-87
2022/12/07 13:50:57;;;;;;;4.25;2.00;;;;;;;;;;5048190;28;20718;-86
2022/12/07 13:53:27;;;;;;;2.60;2.22;;;;;;;;;;5062055;28;20206;-86
2022/12/07 13:55:55;;;;;;;2.17;1.98;;;;;;;;;;5067861;28;20249;-87
2022/12/07 13:58:23;;;;;;;2.63;1.92;;;;;;;;;;5068205;28;20256;-86
2022/12/07 14:00:51;;;;;;;1.60;1.50;;;;;;;;;;5068752;28;20225;-87
2022/12/07 14:03:32;;;;;;;3.50;2.22;;;;;;;;;;5067416;28;20259;-88
2022/12/07 14:06:17;;;;;;;4.40;2.00;;;;;;;;;;5068619;28;20193;-87
2022/12/07 14:08:45;;;;;;;2.92;1.90;;;;;;;;;;5068190;28;20202;-84
2022/12/07 14:11:18;;;;;;;3.42;2.00;;;;;;;;;;5063338;28;20737;-86
2022/12/07 14:14:00;;;;;;;2.72;1.85;;;;;;;;;;5063568;28;20553;-86
2022/12/07 14:16:30;;;;;;;2.97;2.35;;;;;;;;;;5063648;28;20186;-86
2022/12/07 14:19:01;;;;;;;1.80;1.63;;;;;;;;;;5063194;28;20241;-86
2022/12/07 14:21:30;;;;;;;2.05;1.30;;;;;;;;;;5063272;28;20639;-86
2022/12/07 14:24:18;;;;;;;2.78;2.17;;;;;;;;;;5063158;28;20657;-86
2022/12/07 14:26:46;;;;;;;1.30;1.30;;;;;;;;;;5062981;28;20178;-84
2022/12/07 14:29:34;;;;;;;1.42;1.25;;;;;;;;;;5063031;28;20269;-86
2022/12/07 14:32:28;;;;;;;3.35;1.67;;;;;;;;;;5058582;28;20288;-85
2022/12/07 14:35:09;;;;;;;3.20;1.80;;;;;;;;;;5063296;28;20186;-85
2022/12/07 14:37:38;;;;;;;2.95;2.30;;;;;;;;;;5062712;28;20201;-85
2022/12/07 14:40:07;;;;;;;5.13;3.00;;;;;;;;;;5062526;28;20316;-85
2022/12/07 14:42:36;;;;;;;4.65;3.00;;;;;;;;;;5062404;28;20240;-85
2022/12/07 14:45:04;;;;;;;4.20;3.25;;;;;;;;;;5061960;28;20202;-86
2022/12/07 14:47:31;;;;;;;3.55;3.00;;;;;;;;;;5062236;28;20217;-87
2022/12/07 14:49:59;;;;;;;3.83;2.97;;;;;;;;;;5060763;28;20287;-86
2022/12/07 14:52:32;;;;;;;5.53;2.90;;;;;;;;;;5059547;28;20273;-86
2022/12/07 14:55:00;;;;;;;4.40;3.15;;;;;;;;;;5061627;28;20206;-86
2022/12/07 14:57:28;;;;;;;3.10;2.47;;;;;;;;;;5064097;28;20229;-87
2022/12/07 14:59:55;;;;;;;3.40;2.72;;;;;;;;;;5063075;28;20261;-86
2022/12/07 15:02:23;;;;;;;4.63;2.78;;;;;;;;;;5062524;28;20225;-86
2022/12/07 15:04:50;;;;;;;3.25;2.88;;;;;;;;;;5061255;28;20232;-87
2022/12/07 15:07:23;;;;;;;2.63;2.42;;;;;;;;;;5063496;28;20284;-86
2022/12/07 15:09:52;;;;;;;2.58;2.38;;;;;;;;;;5063225;28;20218;-85
2022/12/07 15:12:20;;;;;;;7.05;3.50;;;;;;;;;;5061388;28;20666;-85
2022/12/07 15:14:47;;;;;;;2.50;2.05;;;;;;;;;;5065735;28;20198;-87
2022/12/07 15:17:14;;;;;;;2.60;2.40;;;;;;;;;;5064258;28;20198;-87
2022/12/07 15:19:42;;;;;;;3.92;2.90;;;;;;;;;;5062690;28;20292;-86
2022/12/07 15:22:10;;;;;;;4.78;3.05;;;;;;;;;;5065668;28;20202;-86
2022/12/07 15:24:38;;;;;;;2.97;2.60;;;;;;;;;;5064311;28;20737;-87
2022/12/07 15:27:07;;;;;;;4.10;3.22;;;;;;;;;;5064809;28;20217;-86